Zehner, Canada
Current Conditions -  °F | °C
As of 10:00 PM on Wednesday 22 Oct 2014 (Local Time) from CYQR Reporting Station
Clear Clear  
Wind Chill: 35°   Ceiling: Unl
Heat Index: 39°   Visibility: 15mi
Dew Point: 39°   Wind: 6mph
Humidity: 100%   Direction: 240°WSW
Pressure: 29.79"   Gusts: NA
Location:  50.57°N, 104.46°W
Report Text: CYQR 230400Z 24005KT 15SM SKC 04/04 A2979 RMK SLP104
Loading
Personal Weather Stations






























Interactive Weather Map
Tropical Storm Tracking
New forecast layout! Learn more

10-Day Weather Forecast

Advertisements
Track Severe Weather on mobile